sensor_id;sensor_type;location;lat;lon;timestamp;pressure;altitude;pressure_sealevel;temperature;humidity
69751;BME280;57335;52.288;6.056;2023-05-21T00:02:17;101955.22;;;13.40;88.11
69751;BME280;57335;52.288;6.056;2023-05-21T00:04:44;101965.16;;;13.45;88.80
69751;BME280;57335;52.288;6.056;2023-05-21T00:07:11;101958.66;;;13.41;88.92
69751;BME280;57335;52.288;6.056;2023-05-21T00:09:37;101959.69;;;13.40;88.98
69751;BME280;57335;52.288;6.056;2023-05-21T00:12:05;101953.78;;;13.38;89.27
69751;BME280;57335;52.288;6.056;2023-05-21T00:14:32;101941.00;;;13.34;89.40
69751;BME280;57335;52.288;6.056;2023-05-21T00:16:59;101944.88;;;13.39;89.30
69751;BME280;57335;52.288;6.056;2023-05-21T00:19:25;101950.13;;;13.39;89.60
69751;BME280;57335;52.288;6.056;2023-05-21T00:21:52;101948.91;;;13.34;89.45
69751;BME280;57335;52.288;6.056;2023-05-21T00:24:18;101942.22;;;13.32;90.35
69751;BME280;57335;52.288;6.056;2023-05-21T00:26:45;101943.63;;;13.34;89.68
69751;BME280;57335;52.288;6.056;2023-05-21T00:29:11;101939.22;;;13.35;89.80
69751;BME280;57335;52.288;6.056;2023-05-21T00:31:37;101931.09;;;13.36;90.29
69751;BME280;57335;52.288;6.056;2023-05-21T00:34:04;101939.22;;;13.42;89.69
69751;BME280;57335;52.288;6.056;2023-05-21T00:36:30;101940.22;;;13.41;90.20
69751;BME280;57335;52.288;6.056;2023-05-21T00:38:56;101925.03;;;13.36;89.40
69751;BME280;57335;52.288;6.056;2023-05-21T00:41:23;101931.94;;;13.37;90.00
69751;BME280;57335;52.288;6.056;2023-05-21T00:43:49;101932.94;;;13.43;90.36
69751;BME280;57335;52.288;6.056;2023-05-21T00:46:17;101927.06;;;13.41;89.72
69751;BME280;57335;52.288;6.056;2023-05-21T00:48:45;101927.91;;;13.48;90.03
69751;BME280;57335;52.288;6.056;2023-05-21T00:51:15;101926.25;;;13.47;89.82
69751;BME280;57335;52.288;6.056;2023-05-21T00:53:43;101927.91;;;13.48;89.13
69751;BME280;57335;52.288;6.056;2023-05-21T00:56:10;101930.34;;;13.49;89.43
69751;BME280;57335;52.288;6.056;2023-05-21T00:58:37;101924.47;;;13.54;89.08
69751;BME280;57335;52.288;6.056;2023-05-21T01:01:04;101919.81;;;13.49;89.10
69751;BME280;57335;52.288;6.056;2023-05-21T01:03:34;101921.00;;;13.47;89.64
69751;BME280;57335;52.288;6.056;2023-05-21T01:06:00;101931.34;;;13.48;89.80
69751;BME280;57335;52.288;6.056;2023-05-21T01:08:27;101918.78;;;13.44;89.19
69751;BME280;57335;52.288;6.056;2023-05-21T01:10:53;101916.13;;;13.44;89.47
69751;BME280;57335;52.288;6.056;2023-05-21T01:13:21;101920.19;;;13.46;89.90
69751;BME280;57335;52.288;6.056;2023-05-21T01:15:48;101920.19;;;13.46;89.44
69751;BME280;57335;52.288;6.056;2023-05-21T01:18:15;101920.59;;;13.43;89.29
69751;BME280;57335;52.288;6.056;2023-05-21T01:20:42;101921.41;;;13.44;89.69
69751;BME280;57335;52.288;6.056;2023-05-21T01:23:08;101922.03;;;13.46;89.88
69751;BME280;57335;52.288;6.056;2023-05-21T01:25:35;101913.50;;;13.44;90.19
69751;BME280;57335;52.288;6.056;2023-05-21T01:28:02;101915.34;;;13.43;89.70
69751;BME280;57335;52.288;6.056;2023-05-21T01:30:29;101911.06;;;13.42;89.77
69751;BME280;57335;52.288;6.056;2023-05-21T01:33:05;101903.16;;;13.35;90.10
69751;BME280;57335;52.288;6.056;2023-05-21T01:35:56;101899.72;;;13.35;90.23
69751;BME280;57335;52.288;6.056;2023-05-21T01:38:30;101906.78;;;13.34;90.46
69751;BME280;57335;52.288;6.056;2023-05-21T01:41:01;101904.34;;;13.33;90.67
69751;BME280;57335;52.288;6.056;2023-05-21T01:43:30;101898.47;;;13.31;91.78
69751;BME280;57335;52.288;6.056;2023-05-21T01:45:58;101898.69;;;13.29;91.53
69751;BME280;57335;52.288;6.056;2023-05-21T01:48:29;101901.84;;;13.25;92.12
69751;BME280;57335;52.288;6.056;2023-05-21T01:51:02;101896.56;;;13.18;92.90
69751;BME280;57335;52.288;6.056;2023-05-21T01:53:29;101898.84;;;13.21;93.14
69751;BME280;57335;52.288;6.056;2023-05-21T01:55:55;101881.38;;;13.13;93.41
69751;BME280;57335;52.288;6.056;2023-05-21T01:58:22;101897.00;;;13.15;94.16
69751;BME280;57335;52.288;6.056;2023-05-21T02:00:48;101895.72;;;13.11;95.47
69751;BME280;57335;52.288;6.056;2023-05-21T02:03:15;101890.47;;;13.11;96.20
69751;BME280;57335;52.288;6.056;2023-05-21T02:05:42;101896.94;;;13.08;95.44
69751;BME280;57335;52.288;6.056;2023-05-21T02:08:08;101881.94;;;13.02;96.36
69751;BME280;57335;52.288;6.056;2023-05-21T02:10:35;101891.25;;;13.05;97.33
69751;BME280;57335;52.288;6.056;2023-05-21T02:13:01;101895.91;;;13.03;97.65
69751;BME280;57335;52.288;6.056;2023-05-21T02:15:28;101891.22;;;12.98;97.54
69751;BME280;57335;52.288;6.056;2023-05-21T02:17:54;101881.72;;;12.97;97.77
69751;BME280;57335;52.288;6.056;2023-05-21T02:20:21;101884.56;;;13.02;98.36
69751;BME280;57335;52.288;6.056;2023-05-21T02:22:48;101883.94;;;13.00;98.89
69751;BME280;57335;52.288;6.056;2023-05-21T02:25:17;101891.66;;;13.02;98.56
69751;BME280;57335;52.288;6.056;2023-05-21T02:27:43;101882.09;;;12.94;98.98
69751;BME280;57335;52.288;6.056;2023-05-21T02:30:11;101880.72;;;12.98;99.10
69751;BME280;57335;52.288;6.056;2023-05-21T02:32:39;101878.25;;;12.96;98.88
69751;BME280;57335;52.288;6.056;2023-05-21T02:35:05;101885.00;;;13.06;99.29
69751;BME280;57335;52.288;6.056;2023-05-21T02:37:33;101883.34;;;13.05;99.08
69751;BME280;57335;52.288;6.056;2023-05-21T02:40:03;101880.94;;;13.03;99.13
69751;BME280;57335;52.288;6.056;2023-05-21T02:42:29;101883.16;;;13.06;99.09
69751;BME280;57335;52.288;6.056;2023-05-21T02:44:56;101883.97;;;13.07;99.22
69751;BME280;57335;52.288;6.056;2023-05-21T02:47:23;101872.03;;;13.04;99.35
69751;BME280;57335;52.288;6.056;2023-05-21T02:49:50;101881.16;;;13.08;99.23
69751;BME280;57335;52.288;6.056;2023-05-21T02:52:18;101878.72;;;13.07;99.58
69751;BME280;57335;52.288;6.056;2023-05-21T02:54:45;101867.97;;;13.02;100.00
69751;BME280;57335;52.288;6.056;2023-05-21T02:57:12;101878.53;;;13.08;100.00
69751;BME280;57335;52.288;6.056;2023-05-21T02:59:38;101883.16;;;13.06;100.00
69751;BME280;57335;52.288;6.056;2023-05-21T03:02:05;101877.53;;;13.09;100.00
69751;BME280;57335;52.288;6.056;2023-05-21T03:04:32;101866.94;;;13.03;99.96
69751;BME280;57335;52.288;6.056;2023-05-21T03:06:58;101876.91;;;13.07;99.78
69751;BME280;57335;52.288;6.056;2023-05-21T03:09:24;101879.53;;;13.07;100.00
69751;BME280;57335;52.288;6.056;2023-05-21T03:11:51;101872.03;;;13.04;100.00
69751;BME280;57335;52.288;6.056;2023-05-21T03:14:17;101880.72;;;13.05;100.00
69751;BME280;57335;52.288;6.056;2023-05-21T03:16:44;101874.63;;;12.97;100.00
69751;BME280;57335;52.288;6.056;2023-05-21T03:19:11;101868.94;;;12.94;100.00
69751;BME280;57335;52.288;6.056;2023-05-21T03:21:38;101870.38;;;12.96;100.00
69751;BME280;57335;52.288;6.056;2023-05-21T03:24:05;101860.63;;;12.90;100.00
69751;BME280;57335;52.288;6.056;2023-05-21T03:26:31;101871.41;;;12.95;100.00
69751;BME280;57335;52.288;6.056;2023-05-21T03:28:58;101858.63;;;12.92;100.00
69751;BME280;57335;52.288;6.056;2023-05-21T03:31:25;101866.13;;;12.95;100.00
69751;BME280;57335;52.288;6.056;2023-05-21T03:33:51;101860.81;;;12.89;100.00
69751;BME280;57335;52.288;6.056;2023-05-21T03:36:18;101862.09;;;12.93;100.00
69751;BME280;57335;52.288;6.056;2023-05-21T03:38:45;101862.47;;;12.90;100.00
69751;BME280;57335;52.288;6.056;2023-05-21T03:41:11;101865.28;;;12.88;100.00
69751;BME280;57335;52.288;6.056;2023-05-21T03:43:38;101863.25;;;12.90;100.00
69751;BME280;57335;52.288;6.056;2023-05-21T03:46:04;101872.78;;;12.91;100.00
69751;BME280;57335;52.288;6.056;2023-05-21T03:48:31;101867.28;;;12.86;100.00
69751;BME280;57335;52.288;6.056;2023-05-21T03:50:57;101870.16;;;12.91;100.00
69751;BME280;57335;52.288;6.056;2023-05-21T03:53:23;101868.34;;;12.92;100.00
69751;BME280;57335;52.288;6.056;2023-05-21T03:55:50;101858.78;;;12.84;100.00
69751;BME280;57335;52.288;6.056;2023-05-21T03:58:16;101850.28;;;12.82;100.00
69751;BME280;57335;52.288;6.056;2023-05-21T04:00:43;101864.28;;;12.89;100.00
69751;BME280;57335;52.288;6.056;2023-05-21T04:03:09;101861.25;;;12.92;100.00
69751;BME280;57335;52.288;6.056;2023-05-21T04:05:36;101851.13;;;12.89;100.00
69751;BME280;57335;52.288;6.056;2023-05-21T04:08:02;101855.56;;;12.89;100.00
69751;BME280;57335;52.288;6.056;2023-05-21T04:10:29;101870.00;;;13.00;100.00
69751;BME280;57335;52.288;6.056;2023-05-21T04:12:55;101864.13;;;12.97;100.00
69751;BME280;57335;52.288;6.056;2023-05-21T04:15:21;101865.34;;;13.02;100.00
69751;BME280;57335;52.288;6.056;2023-05-21T04:17:48;101868.16;;;13.00;100.00
69751;BME280;57335;52.288;6.056;2023-05-21T04:20:14;101858.06;;;12.97;100.00
69751;BME280;57335;52.288;6.056;2023-05-21T04:22:41;101861.50;;;12.97;100.00
69751;BME280;57335;52.288;6.056;2023-05-21T04:25:08;101872.25;;;13.09;100.00
69751;BME280;57335;52.288;6.056;2023-05-21T04:27:35;101864.94;;;13.05;100.00
69751;BME280;57335;52.288;6.056;2023-05-21T04:30:03;101869.22;;;13.06;100.00
69751;BME280;57335;52.288;6.056;2023-05-21T04:32:30;101876.13;;;13.13;100.00
69751;BME280;57335;52.288;6.056;2023-05-21T04:34:56;101884.81;;;13.14;100.00
69751;BME280;57335;52.288;6.056;2023-05-21T04:37:22;101880.78;;;13.18;100.00
69751;BME280;57335;52.288;6.056;2023-05-21T04:39:49;101878.16;;;13.18;100.00
69751;BME280;57335;52.288;6.056;2023-05-21T04:42:15;101880.41;;;13.21;100.00
69751;BME280;57335;52.288;6.056;2023-05-21T04:44:41;101878.38;;;13.23;100.00
69751;BME280;57335;52.288;6.056;2023-05-21T04:47:08;101887.75;;;13.32;100.00
69751;BME280;57335;52.288;6.056;2023-05-21T04:49:34;101877.78;;;13.28;100.00
69751;BME280;57335;52.288;6.056;2023-05-21T04:52:01;101878.22;;;13.31;100.00
69751;BME280;57335;52.288;6.056;2023-05-21T04:54:27;101888.16;;;13.36;100.00
69751;BME280;57335;52.288;6.056;2023-05-21T04:56:54;101881.28;;;13.35;100.00
69751;BME280;57335;52.288;6.056;2023-05-21T04:59:20;101890.97;;;13.34;99.55
69751;BME280;57335;52.288;6.056;2023-05-21T05:01:47;101872.56;;;13.34;99.60
69751;BME280;57335;52.288;6.056;2023-05-21T05:04:13;101885.75;;;13.41;99.97
69751;BME280;57335;52.288;6.056;2023-05-21T05:06:39;101880.06;;;13.44;99.71
69751;BME280;57335;52.288;6.056;2023-05-21T05:09:06;101883.94;;;13.48;100.00
69751;BME280;57335;52.288;6.056;2023-05-21T05:11:32;101878.47;;;13.50;99.69
69751;BME280;57335;52.288;6.056;2023-05-21T05:13:58;101874.19;;;13.49;100.00
69751;BME280;57335;52.288;6.056;2023-05-21T05:16:25;101876.69;;;13.57;99.66
69751;BME280;57335;52.288;6.056;2023-05-21T05:18:51;101869.56;;;13.57;99.93
69751;BME280;57335;52.288;6.056;2023-05-21T05:21:20;101863.91;;;13.54;99.52
69751;BME280;57335;52.288;6.056;2023-05-21T05:23:47;101866.34;;;13.62;100.00
69751;BME280;57335;52.288;6.056;2023-05-21T05:26:13;101875.88;;;13.70;99.99
69751;BME280;57335;52.288;6.056;2023-05-21T05:28:40;101879.13;;;13.65;99.17
69751;BME280;57335;52.288;6.056;2023-05-21T05:31:06;101874.84;;;13.64;98.49
69751;BME280;57335;52.288;6.056;2023-05-21T05:33:33;101882.16;;;13.75;99.92
69751;BME280;57335;52.288;6.056;2023-05-21T05:36:00;101874.69;;;13.79;99.91
69751;BME280;57335;52.288;6.056;2023-05-21T05:38:26;101880.31;;;13.83;99.05
69751;BME280;57335;52.288;6.056;2023-05-21T05:40:52;101874.66;;;13.86;100.00
69751;BME280;57335;52.288;6.056;2023-05-21T05:43:19;101863.72;;;13.89;98.83
69751;BME280;57335;52.288;6.056;2023-05-21T05:45:45;101872.44;;;13.89;98.97
69751;BME280;57335;52.288;6.056;2023-05-21T05:48:12;101873.25;;;13.90;99.25
69751;BME280;57335;52.288;6.056;2023-05-21T05:50:38;101874.25;;;13.89;97.93
69751;BME280;57335;52.288;6.056;2023-05-21T05:53:04;101868.56;;;13.99;98.68
69751;BME280;57335;52.288;6.056;2023-05-21T05:55:31;101876.69;;;14.04;97.91
69751;BME280;57335;52.288;6.056;2023-05-21T05:57:57;101877.50;;;14.04;97.94
69751;BME280;57335;52.288;6.056;2023-05-21T06:00:24;101869.59;;;14.04;97.91
69751;BME280;57335;52.288;6.056;2023-05-21T06:02:50;101876.69;;;14.10;98.09
69751;BME280;57335;52.288;6.056;2023-05-21T06:05:17;101872.81;;;14.13;97.92
69751;BME280;57335;52.288;6.056;2023-05-21T06:07:43;101868.38;;;14.13;96.68
69751;BME280;57335;52.288;6.056;2023-05-21T06:10:10;101872.63;;;14.14;96.74
69751;BME280;57335;52.288;6.056;2023-05-21T06:12:36;101867.56;;;14.20;97.26
69751;BME280;57335;52.288;6.056;2023-05-21T06:15:04;101865.72;;;14.20;95.90
69751;BME280;57335;52.288;6.056;2023-05-21T06:17:30;101873.25;;;14.23;96.35
69751;BME280;57335;52.288;6.056;2023-05-21T06:19:57;101863.47;;;14.30;96.81
69751;BME280;57335;52.288;6.056;2023-05-21T06:22:23;101871.59;;;14.35;95.76
69751;BME280;57335;52.288;6.056;2023-05-21T06:24:51;101879.28;;;14.37;96.41
69751;BME280;57335;52.288;6.056;2023-05-21T06:27:17;101860.66;;;14.32;96.31
69751;BME280;57335;52.288;6.056;2023-05-21T06:29:43;101862.06;;;14.28;94.94
69751;BME280;57335;52.288;6.056;2023-05-21T06:32:10;101872.00;;;14.32;95.23
69751;BME280;57335;52.288;6.056;2023-05-21T06:34:36;101864.69;;;14.34;95.52
69751;BME280;57335;52.288;6.056;2023-05-21T06:37:03;101879.72;;;14.34;93.55
69751;BME280;57335;52.288;6.056;2023-05-21T06:39:29;101872.00;;;14.32;94.98
69751;BME280;57335;52.288;6.056;2023-05-21T06:41:56;101873.41;;;14.35;94.44
69751;BME280;57335;52.288;6.056;2023-05-21T06:44:22;101856.59;;;14.36;94.96
69751;BME280;57335;52.288;6.056;2023-05-21T06:46:48;101855.75;;;14.42;94.63
69751;BME280;57335;52.288;6.056;2023-05-21T06:49:15;101854.94;;;14.48;94.52
69751;BME280;57335;52.288;6.056;2023-05-21T06:51:41;101857.97;;;14.59;94.11
69751;BME280;57335;52.288;6.056;2023-05-21T06:54:08;101854.53;;;14.58;93.22
69751;BME280;57335;52.288;6.056;2023-05-21T06:56:34;101843.38;;;14.56;93.59
69751;BME280;57335;52.288;6.056;2023-05-21T06:59:00;101850.47;;;14.62;94.91
69751;BME280;57335;52.288;6.056;2023-05-21T07:01:27;101850.22;;;14.70;93.60
69751;BME280;57335;52.288;6.056;2023-05-21T07:03:53;101845.94;;;14.76;93.26
69751;BME280;57335;52.288;6.056;2023-05-21T07:06:20;101846.94;;;14.75;91.76
69751;BME280;57335;52.288;6.056;2023-05-21T07:08:46;101854.22;;;14.86;92.72
69751;BME280;57335;52.288;6.056;2023-05-21T07:11:12;101843.72;;;14.80;91.58
69751;BME280;57335;52.288;6.056;2023-05-21T07:13:39;101848.38;;;14.78;90.41
69751;BME280;57335;52.288;6.056;2023-05-21T07:16:06;101847.75;;;14.82;91.17
69751;BME280;57335;52.288;6.056;2023-05-21T07:18:32;101855.63;;;14.89;90.90
69751;BME280;57335;52.288;6.056;2023-05-21T07:20:58;101838.75;;;14.96;91.08
69751;BME280;57335;52.288;6.056;2023-05-21T07:23:25;101851.69;;;15.05;91.38
69751;BME280;57335;52.288;6.056;2023-05-21T07:25:51;101854.94;;;15.13;90.20
69751;BME280;57335;52.288;6.056;2023-05-21T07:28:18;101850.25;;;15.15;89.83
69751;BME280;57335;52.288;6.056;2023-05-21T07:30:44;101853.44;;;15.24;89.53
69751;BME280;57335;52.288;6.056;2023-05-21T07:33:10;101860.09;;;15.33;90.19
69751;BME280;57335;52.288;6.056;2023-05-21T07:35:37;101850.50;;;15.39;90.15
69751;BME280;57335;52.288;6.056;2023-05-21T07:38:03;101859.34;;;15.51;88.90
69751;BME280;57335;52.288;6.056;2023-05-21T07:40:30;101847.44;;;15.67;87.72
69751;BME280;57335;52.288;6.056;2023-05-21T07:42:56;101850.34;;;15.91;85.92
69751;BME280;57335;52.288;6.056;2023-05-21T07:45:23;101838.78;;;16.10;84.36
69751;BME280;57335;52.288;6.056;2023-05-21T07:47:49;101847.63;;;16.41;83.97
69751;BME280;57335;52.288;6.056;2023-05-21T07:50:16;101852.19;;;16.52;83.28
69751;BME280;57335;52.288;6.056;2023-05-21T07:52:42;101856.59;;;16.59;80.99
69751;BME280;57335;52.288;6.056;2023-05-21T07:55:09;101839.16;;;16.69;80.11
69751;BME280;57335;52.288;6.056;2023-05-21T07:57:36;101827.41;;;16.84;80.66
69751;BME280;57335;52.288;6.056;2023-05-21T08:00:02;101835.66;;;17.06;80.97
69751;BME280;57335;52.288;6.056;2023-05-21T08:02:29;101833.78;;;17.25;80.01
69751;BME280;57335;52.288;6.056;2023-05-21T08:04:55;101838.69;;;17.51;80.62
69751;BME280;57335;52.288;6.056;2023-05-21T08:07:22;101835.25;;;17.74;77.37
69751;BME280;57335;52.288;6.056;2023-05-21T08:09:48;101835.53;;;17.85;76.96
69751;BME280;57335;52.288;6.056;2023-05-21T08:12:15;101835.53;;;17.85;76.29
69751;BME280;57335;52.288;6.056;2023-05-21T08:14:41;101827.00;;;18.06;77.96
69751;BME280;57335;52.288;6.056;2023-05-21T08:17:08;101832.53;;;18.28;73.56
69751;BME280;57335;52.288;6.056;2023-05-21T08:19:34;101834.63;;;18.67;72.99
69751;BME280;57335;52.288;6.056;2023-05-21T08:22:01;101832.56;;;18.98;73.49
69751;BME280;57335;52.288;6.056;2023-05-21T08:24:27;101831.03;;;19.02;73.06
69751;BME280;57335;52.288;6.056;2023-05-21T08:26:54;101834.03;;;19.05;70.71
69751;BME280;57335;52.288;6.056;2023-05-21T08:29:20;101824.03;;;18.96;70.75
69751;BME280;57335;52.288;6.056;2023-05-21T08:31:47;101832.50;;;18.92;69.78
69751;BME280;57335;52.288;6.056;2023-05-21T08:34:13;101832.91;;;19.01;70.37
69751;BME280;57335;52.288;6.056;2023-05-21T08:36:39;101825.16;;;19.28;72.08
69751;BME280;57335;52.288;6.056;2023-05-21T08:39:06;101819.84;;;19.28;70.85
69751;BME280;57335;52.288;6.056;2023-05-21T08:41:34;101828.44;;;19.36;70.09
69751;BME280;57335;52.288;6.056;2023-05-21T08:44:01;101824.97;;;19.35;70.16
69751;BME280;57335;52.288;6.056;2023-05-21T08:46:31;101818.47;;;19.60;70.41
69751;BME280;57335;52.288;6.056;2023-05-21T08:49:00;101824.44;;;19.84;68.75
69751;BME280;57335;52.288;6.056;2023-05-21T08:51:29;101821.16;;;20.16;68.61
69751;BME280;57335;52.288;6.056;2023-05-21T08:53:56;101826.00;;;20.19;70.17
69751;BME280;57335;52.288;6.056;2023-05-21T08:56:25;101832.44;;;20.23;67.95
69751;BME280;57335;52.288;6.056;2023-05-21T08:58:52;101830.81;;;20.22;67.46
69751;BME280;57335;52.288;6.056;2023-05-21T09:01:19;101818.94;;;20.51;69.71
69751;BME280;57335;52.288;6.056;2023-05-21T09:03:49;101823.97;;;20.70;67.32
69751;BME280;57335;52.288;6.056;2023-05-21T09:06:18;101827.75;;;21.01;67.36
69751;BME280;57335;52.288;6.056;2023-05-21T09:08:49;101816.38;;;21.11;64.42
69751;BME280;57335;52.288;6.056;2023-05-21T09:11:19;101826.69;;;21.35;66.73
69751;BME280;57335;52.288;6.056;2023-05-21T09:13:45;101817.13;;;21.39;67.08
69751;BME280;57335;52.288;6.056;2023-05-21T09:16:12;101814.66;;;21.27;64.10
69751;BME280;57335;52.288;6.056;2023-05-21T09:18:38;101821.06;;;21.58;67.10
69751;BME280;57335;52.288;6.056;2023-05-21T09:21:25;101812.88;;;21.70;64.13
69751;BME280;57335;52.288;6.056;2023-05-21T09:23:56;101823.47;;;21.27;64.67
69751;BME280;57335;52.288;6.056;2023-05-21T09:26:23;101808.19;;;20.90;66.80
69751;BME280;57335;52.288;6.056;2023-05-21T09:28:51;101809.28;;;20.95;66.33
69751;BME280;57335;52.288;6.056;2023-05-21T09:31:22;101798.44;;;20.74;65.36
69751;BME280;57335;52.288;6.056;2023-05-21T09:33:48;101813.66;;;20.79;69.70
69751;BME280;57335;52.288;6.056;2023-05-21T09:36:18;101804.31;;;20.76;65.85
69751;BME280;57335;52.288;6.056;2023-05-21T09:38:47;101807.19;;;20.69;67.60
69751;BME280;57335;52.288;6.056;2023-05-21T09:41:13;101797.13;;;20.55;68.15
69751;BME280;57335;52.288;6.056;2023-05-21T09:43:45;101814.09;;;20.48;69.80
69751;BME280;57335;52.288;6.056;2023-05-21T09:46:11;101804.28;;;20.71;69.63
69751;BME280;57335;52.288;6.056;2023-05-21T09:48:41;101793.66;;;20.76;66.22
69751;BME280;57335;52.288;6.056;2023-05-21T09:51:12;101796.31;;;20.76;67.39
69751;BME280;57335;52.288;6.056;2023-05-21T09:53:53;101797.25;;;20.87;68.71
69751;BME280;57335;52.288;6.056;2023-05-21T09:56:22;101785.81;;;20.91;66.02
69751;BME280;57335;52.288;6.056;2023-05-21T09:58:59;101787.22;;;20.72;67.11
69751;BME280;57335;52.288;6.056;2023-05-21T10:01:26;101783.50;;;20.73;69.76
69751;BME280;57335;52.288;6.056;2023-05-21T10:03:54;101775.41;;;20.63;70.79
69751;BME280;57335;52.288;6.056;2023-05-21T10:06:26;101775.16;;;20.64;67.76
69751;BME280;57335;52.288;6.056;2023-05-21T10:08:54;101776.56;;;20.72;69.71
69751;BME280;57335;52.288;6.056;2023-05-21T10:11:24;101783.00;;;20.76;67.45
69751;BME280;57335;52.288;6.056;2023-05-21T10:13:57;101773.66;;;20.51;68.32
69751;BME280;57335;52.288;6.056;2023-05-21T10:16:25;101779.44;;;20.43;67.88
69751;BME280;57335;52.288;6.056;2023-05-21T10:18:53;101768.81;;;20.70;72.29
69751;BME280;57335;52.288;6.056;2023-05-21T10:21:20;101780.19;;;20.88;66.78
69751;BME280;57335;52.288;6.056;2023-05-21T10:23:47;101770.94;;;20.96;67.95
69751;BME280;57335;52.288;6.056;2023-05-21T10:26:14;101764.19;;;20.88;69.00
69751;BME280;57335;52.288;6.056;2023-05-21T10:28:41;101759.38;;;20.85;68.66
69751;BME280;57335;52.288;6.056;2023-05-21T10:31:08;101769.19;;;20.79;67.84
69751;BME280;57335;52.288;6.056;2023-05-21T10:33:35;101755.16;;;20.62;68.89
69751;BME280;57335;52.288;6.056;2023-05-21T10:36:03;101765.09;;;20.71;69.98
69751;BME280;57335;52.288;6.056;2023-05-21T10:38:31;101764.56;;;20.69;67.74
69751;BME280;57335;52.288;6.056;2023-05-21T10:40:58;101763.69;;;20.91;67.61
69751;BME280;57335;52.288;6.056;2023-05-21T10:43:44;101759.31;;;21.07;66.80
69751;BME280;57335;52.288;6.056;2023-05-21T10:52:33;101746.63;;;21.24;65.03
69751;BME280;57335;52.288;6.056;2023-05-21T10:55:16;101750.44;;;21.34;66.12
69751;BME280;57335;52.288;6.056;2023-05-21T10:58:01;101745.34;;;21.32;67.44
69751;BME280;57335;52.288;6.056;2023-05-21T11:00:34;101753.81;;;21.56;66.12
69751;BME280;57335;52.288;6.056;2023-05-21T11:03:02;101738.41;;;21.68;66.18
69751;BME280;57335;52.288;6.056;2023-05-21T11:08:21;101737.53;;;22.05;67.06
69751;BME280;57335;52.288;6.056;2023-05-21T11:10:52;101728.97;;;22.03;66.13
69751;BME280;57335;52.288;6.056;2023-05-21T11:13:19;101737.22;;;21.97;64.43
69751;BME280;57335;52.288;6.056;2023-05-21T11:21:11;101723.91;;;22.02;64.84
69751;BME280;57335;52.288;6.056;2023-05-21T11:26:17;101724.72;;;22.13;67.11
69751;BME280;57335;52.288;6.056;2023-05-21T11:28:44;101724.50;;;22.19;64.80
69751;BME280;57335;52.288;6.056;2023-05-21T11:31:23;101726.09;;;22.20;65.99
69751;BME280;57335;52.288;6.056;2023-05-21T11:34:18;101717.91;;;22.42;62.97
69751;BME280;57335;52.288;6.056;2023-05-21T11:36:46;101725.09;;;22.47;63.91
69751;BME280;57335;52.288;6.056;2023-05-21T11:39:17;101727.53;;;22.43;64.78
69751;BME280;57335;52.288;6.056;2023-05-21T11:41:57;101720.84;;;22.51;65.12
69751;BME280;57335;52.288;6.056;2023-05-21T11:44:47;101730.19;;;22.48;66.11
69751;BME280;57335;52.288;6.056;2023-05-21T11:47:15;101726.22;;;22.66;64.73
69751;BME280;57335;52.288;6.056;2023-05-21T11:49:43;101715.81;;;22.70;63.68
69751;BME280;57335;52.288;6.056;2023-05-21T11:52:11;101718.19;;;22.87;63.21
69751;BME280;57335;52.288;6.056;2023-05-21T11:54:49;101712.59;;;22.73;65.47
69751;BME280;57335;52.288;6.056;2023-05-21T11:57:16;101712.34;;;22.80;62.05
69751;BME280;57335;52.288;6.056;2023-05-21T11:59:44;101714.75;;;22.81;62.58
69751;BME280;57335;52.288;6.056;2023-05-21T12:02:18;101705.41;;;22.99;64.75
69751;BME280;57335;52.288;6.056;2023-05-21T12:04:47;101693.66;;;23.05;66.28
69751;BME280;57335;52.288;6.056;2023-05-21T12:07:15;101700.31;;;23.18;61.94
69751;BME280;57335;52.288;6.056;2023-05-21T12:09:46;101701.91;;;23.29;65.32
69751;BME280;57335;52.288;6.056;2023-05-21T12:12:15;101698.16;;;23.20;65.70
69751;BME280;57335;52.288;6.056;2023-05-21T12:14:44;101702.19;;;23.18;63.58
69751;BME280;57335;52.288;6.056;2023-05-21T12:17:11;101701.09;;;22.93;61.56
69751;BME280;57335;52.288;6.056;2023-05-21T12:19:38;101689.34;;;23.15;67.28
69751;BME280;57335;52.288;6.056;2023-05-21T12:22:06;101687.97;;;23.33;62.62
69751;BME280;57335;52.288;6.056;2023-05-21T12:24:33;101693.06;;;23.29;63.12
69751;BME280;57335;52.288;6.056;2023-05-21T12:27:06;101692.50;;;23.37;64.18
69751;BME280;57335;52.288;6.056;2023-05-21T12:29:34;101688.47;;;23.50;65.32
69751;BME280;57335;52.288;6.056;2023-05-21T12:32:01;101683.84;;;23.71;62.07
69751;BME280;57335;52.288;6.056;2023-05-21T12:34:51;101681.69;;;23.73;63.05
69751;BME280;57335;52.288;6.056;2023-05-21T12:37:23;101683.66;;;23.52;61.56
69751;BME280;57335;52.288;6.056;2023-05-21T12:39:51;101682.34;;;23.39;62.98
69751;BME280;57335;52.288;6.056;2023-05-21T12:42:29;101686.59;;;23.50;64.40
69751;BME280;57335;52.288;6.056;2023-05-21T12:44:56;101681.72;;;23.63;64.68
69751;BME280;57335;52.288;6.056;2023-05-21T12:47:24;101679.78;;;23.89;63.02
69751;BME280;57335;52.288;6.056;2023-05-21T12:49:56;101677.09;;;23.94;60.07
69751;BME280;57335;52.288;6.056;2023-05-21T12:52:23;101670.50;;;23.61;61.96
69751;BME280;57335;52.288;6.056;2023-05-21T12:54:51;101672.16;;;23.52;62.08
69751;BME280;57335;52.288;6.056;2023-05-21T12:57:23;101661.22;;;23.33;65.59
69751;BME280;57335;52.288;6.056;2023-05-21T12:59:55;101659.59;;;23.42;63.09
69751;BME280;57335;52.288;6.056;2023-05-21T13:02:33;101658.56;;;23.38;62.00
69751;BME280;57335;52.288;6.056;2023-05-21T13:05:04;101653.66;;;23.55;65.34
69751;BME280;57335;52.288;6.056;2023-05-21T13:07:33;101654.22;;;23.47;65.76
69751;BME280;57335;52.288;6.056;2023-05-21T13:10:00;101660.13;;;23.39;62.97